Time;durP1;ratioP1;P1;durP2;ratioP2;P2;SDS_P1;SDS_P2;PMS_P1;PMS_P2;Temp;Humidity;BMP_temperature;BMP_pressure;BME280_temperature;BME280_humidity;BME280_pressure;Samples;Min_cycle;Max_cycle;Signal;HPM_P1;HPM_P2
2021/03/28 00:03:09;;;;;;;1.30;0.90;;;12.80;74.40;;;;;;5070007;28;20121;-42
2021/03/28 00:05:36;;;;;;;2.10;1.10;;;12.80;74.40;;;;;;4966777;28;20095;-41
2021/03/28 00:08:21;;;;;;;1.35;0.90;;;12.70;74.40;;;;;;4990551;28;20062;-39
2021/03/28 00:10:54;;;;;;;2.10;1.20;;;12.80;74.40;;;;;;4991020;28;20133;-42
2021/03/28 00:13:26;;;;;;;1.90;1.10;;;12.80;74.40;;;;;;4990219;28;20101;-46
2021/03/28 00:15:54;;;;;;;2.13;1.00;;;12.80;74.40;;;;;;4988330;28;20077;-43
2021/03/28 00:18:48;;;;;;;1.42;0.90;;;12.80;74.40;;;;;;4990336;28;20054;-44
2021/03/28 00:21:18;;;;;;;2.22;0.90;;;12.80;74.40;;;;;;4990218;28;20133;-50
2021/03/28 00:23:57;;;;;;;1.38;0.80;;;12.80;74.40;;;;;;4990637;28;20080;-51
2021/03/28 00:26:28;;;;;;;1.70;1.20;;;12.80;74.40;;;;;;5029838;28;20172;-50
2021/03/28 00:29:15;;;;;;;1.48;0.85;;;12.80;74.40;;;;;;5039172;28;20056;-42
2021/03/28 00:31:54;;;;;;;2.00;1.00;;;12.80;74.40;;;;;;5040662;28;20041;-52
2021/03/28 00:34:20;;;;;;;2.22;1.17;;;12.80;74.40;;;;;;5039402;28;20103;-51
2021/03/28 00:36:56;;;;;;;2.42;1.65;;;12.80;74.40;;;;;;5038761;28;20076;-49
2021/03/28 00:39:49;;;;;;;1.38;0.93;;;12.80;74.50;;;;;;5070008;28;20052;-52
2021/03/28 00:42:40;;;;;;;1.13;0.80;;;12.80;74.40;;;;;;5110318;28;20048;-49
2021/03/28 00:45:26;;;;;;;1.13;0.90;;;12.80;74.40;;;;;;5105720;28;20047;-49
2021/03/28 00:48:17;;;;;;;1.75;0.85;;;12.80;74.40;;;;;;5110224;28;20046;-41
2021/03/28 00:51:09;;;;;;;1.15;0.77;;;12.80;74.50;;;;;;5111551;28;20047;-45
2021/03/28 00:53:44;;;;;;;3.00;1.35;;;12.70;74.40;;;;;;5110106;28;20499;-50
2021/03/28 00:56:15;;;;;;;4.13;1.48;;;12.70;74.40;;;;;;5109989;28;20047;-49
2021/03/28 00:58:44;;;;;;;1.55;1.30;;;12.80;74.40;;;;;;5112582;28;20075;-49
2021/03/28 01:01:32;;;;;;;2.40;1.20;;;12.80;74.40;;;;;;5111355;28;20083;-42
2021/03/28 01:04:18;;;;;;;1.05;0.80;;;12.80;74.50;;;;;;5112391;28;20055;-48
2021/03/28 01:07:21;;;;;;;2.28;1.38;;;12.80;74.40;;;;;;5115592;28;20051;-47
2021/03/28 01:09:50;;;;;;;2.63;0.90;;;12.70;74.40;;;;;;5115660;28;20131;-44
2021/03/28 01:12:50;;;;;;;3.08;1.38;;;12.70;74.40;;;;;;5116292;28;20063;-43
2021/03/28 01:15:34;;;;;;;3.50;1.33;;;12.80;74.40;;;;;;5116075;28;20044;-41
2021/03/28 01:18:06;;;;;;;1.95;1.20;;;12.70;74.40;;;;;;5114219;28;20043;-49
2021/03/28 01:21:02;;;;;;;1.63;1.15;;;12.70;74.40;;;;;;5113510;28;20043;-48
2021/03/28 01:23:39;;;;;;;1.55;1.00;;;12.70;74.40;;;;;;5116146;28;20402;-44
2021/03/28 01:26:16;;;;;;;2.58;1.17;;;12.70;74.40;;;;;;5115507;28;20538;-47
2021/03/28 01:28:50;;;;;;;1.77;0.93;;;12.70;74.40;;;;;;5116096;28;20039;-41
2021/03/28 01:31:24;;;;;;;2.75;1.30;;;12.70;74.40;;;;;;5113584;28;20070;-46
2021/03/28 01:34:16;;;;;;;2.05;1.30;;;12.70;74.50;;;;;;5114271;28;20066;-50
2021/03/28 01:36:47;;;;;;;2.67;1.42;;;12.70;74.40;;;;;;5114254;28;20048;-50
2021/03/28 01:39:18;;;;;;;1.98;1.00;;;12.70;74.40;;;;;;5113310;28;20538;-48
2021/03/28 01:41:55;;;;;;;3.13;1.35;;;12.80;74.50;;;;;;5115185;28;20176;-47
2021/03/28 01:44:37;;;;;;;2.20;1.30;;;12.70;74.50;;;;;;5115845;28;20043;-44
2021/03/28 01:47:12;;;;;;;1.70;1.00;;;12.70;74.50;;;;;;5114186;28;20122;-45
2021/03/28 01:50:04;;;;;;;;;;;12.70;74.50;;;;;;5114568;28;20058;-45
2021/03/28 01:52:48;;;;;;;1.45;1.13;;;12.70;74.50;;;;;;5112250;28;19919;-52
2021/03/28 01:55:23;;;;;;;2.35;0.93;;;12.70;74.50;;;;;;5115412;28;20080;-49
2021/03/28 01:58:00;;;;;;;3.20;1.40;;;12.70;74.50;;;;;;5112437;28;20120;-51
2021/03/28 02:00:45;;;;;;;1.17;1.00;;;12.70;74.50;;;;;;5115390;28;20126;-47
2021/03/28 02:03:21;;;;;;;1.63;1.05;;;12.70;74.50;;;;;;5111917;28;20044;-40
2021/03/28 02:06:21;;;;;;;2.47;1.55;;;12.70;74.50;;;;;;5114833;28;20118;-47
2021/03/28 02:08:49;;;;;;;1.67;1.20;;;12.70;74.50;;;;;;5114446;28;20036;-43
2021/03/28 02:11:51;;;;;;;1.73;0.90;;;12.70;74.50;;;;;;5115002;28;20043;-50
2021/03/28 02:14:39;;;;;;;2.72;1.27;;;12.70;74.50;;;;;;5032065;28;20445;-49
2021/03/28 02:17:29;;;;;;;3.45;1.35;;;12.70;74.50;;;;;;5031345;28;20057;-42
2021/03/28 02:20:22;;;;;;;1.67;1.15;;;12.70;74.50;;;;;;5030827;28;20489;-45
2021/03/28 02:23:13;;;;;;;1.75;1.55;;;12.70;74.50;;;;;;5032009;28;20046;-47
2021/03/28 02:25:52;;;;;;;1.95;1.17;;;12.70;74.50;;;;;;5030269;28;20122;-47
2021/03/28 02:28:42;;;;;;;1.38;0.95;;;12.70;74.60;;;;;;5029711;28;20576;-51
2021/03/28 02:31:26;;;;;;;2.65;1.20;;;12.70;74.50;;;;;;5031971;28;20080;-49
2021/03/28 02:34:07;;;;;;;1.33;0.68;;;12.70;74.60;;;;;;5029943;28;20492;-49
2021/03/28 02:36:54;;;;;;;3.00;1.20;;;12.70;74.60;;;;;;5031223;28;20062;-41
2021/03/28 02:39:35;;;;;;;2.20;0.93;;;12.70;74.60;;;;;;5030292;28;20056;-43
2021/03/28 02:42:07;;;;;;;2.20;1.27;;;12.70;74.60;;;;;;5030667;28;20041;-41
2021/03/28 02:44:59;;;;;;;2.38;1.10;;;12.70;74.60;;;;;;5029237;28;20647;-44
2021/03/28 02:48:02;;;;;;;3.00;1.15;;;12.70;74.60;;;;;;5039480;28;20135;-45
2021/03/28 02:51:04;;;;;;;2.40;0.93;;;12.70;74.60;;;;;;5113620;28;20092;-43
2021/03/28 02:54:13;;;;;;;1.13;0.98;;;12.70;74.60;;;;;;5111877;28;20044;-46
2021/03/28 02:57:06;;;;;;;1.65;1.10;;;12.70;74.60;;;;;;5112653;28;20039;-41
2021/03/28 02:59:53;;;;;;;0.82;0.80;;;12.70;74.60;;;;;;5113499;28;20431;-40
2021/03/28 03:02:37;;;;;;;1.88;1.05;;;12.70;74.60;;;;;;5112461;28;20519;-54
2021/03/28 03:05:36;;;;;;;2.10;1.30;;;12.70;74.60;;;;;;5112802;28;20092;-46
2021/03/28 03:08:20;;;;;;;1.52;1.15;;;12.60;74.50;;;;;;5112992;28;20093;-48
2021/03/28 03:11:26;;;;;;;2.67;1.17;;;12.60;74.50;;;;;;5112771;28;20054;-51
2021/03/28 03:14:08;;;;;;;2.33;1.20;;;12.70;74.60;;;;;;5004499;28;20069;-42
2021/03/28 03:16:55;;;;;;;1.80;1.30;;;12.60;74.50;;;;;;5002453;28;20052;-45
2021/03/28 03:19:50;;;;;;;1.55;1.10;;;12.60;74.60;;;;;;5002986;28;20062;-40
2021/03/28 03:22:24;;;;;;;1.30;0.90;;;12.70;74.60;;;;;;5001339;28;20053;-48
2021/03/28 03:25:11;;;;;;;2.38;1.25;;;12.70;74.60;;;;;;4997945;28;20046;-50
2021/03/28 03:28:11;;;;;;;2.42;0.98;;;12.60;74.50;;;;;;5000474;28;20133;-46
2021/03/28 03:30:46;;;;;;;3.10;1.70;;;12.60;74.60;;;;;;5000349;28;20049;-50
2021/03/28 03:33:53;;;;;;;3.90;1.35;;;12.60;74.60;;;;;;4998221;28;20198;-52
2021/03/28 03:36:37;;;;;;;2.70;0.98;;;12.60;74.50;;;;;;5001308;28;20688;-42
2021/03/28 03:39:30;;;;;;;2.50;1.27;;;12.70;74.60;;;;;;5002082;28;20511;-41
2021/03/28 03:42:24;;;;;;;2.88;1.33;;;12.60;74.60;;;;;;5001483;28;20038;-44
2021/03/28 03:45:11;;;;;;;1.45;1.10;;;12.70;74.60;;;;;;4997431;28;20042;-43
2021/03/28 03:47:44;;;;;;;2.92;1.13;;;12.60;74.50;;;;;;5001075;28;20046;-45
2021/03/28 03:50:51;;;;;;;1.15;0.80;;;12.60;74.50;;;;;;5026512;28;20625;-50
2021/03/28 03:53:25;;;;;;;1.42;1.10;;;12.60;74.60;;;;;;5049947;28;20057;-52
2021/03/28 03:56:22;;;;;;;2.10;1.02;;;12.60;74.50;;;;;;5050458;28;20082;-43
2021/03/28 03:59:07;;;;;;;1.83;0.98;;;12.60;74.60;;;;;;5049204;28;20057;-49
2021/03/28 04:01:51;;;;;;;1.67;0.90;;;12.60;74.50;;;;;;5049937;28;20537;-43
2021/03/28 04:04:39;;;;;;;1.10;1.00;;;12.60;74.50;;;;;;5050271;28;20045;-54
2021/03/28 04:07:40;;;;;;;2.50;1.10;;;12.60;74.50;;;;;;5049100;28;20593;-43
2021/03/28 04:10:39;;;;;;;1.45;1.00;;;12.60;74.50;;;;;;5049779;28;20131;-46
2021/03/28 04:13:25;;;;;;;4.05;1.42;;;12.60;74.50;;;;;;5048902;28;20054;-44
2021/03/28 04:16:21;;;;;;;2.40;1.30;;;12.60;74.60;;;;;;5049807;28;20499;-49
2021/03/28 04:19:08;;;;;;;4.85;1.40;;;12.60;74.50;;;;;;5049514;28;20044;-44
2021/03/28 04:21:39;;;;;;;1.88;1.20;;;12.60;74.60;;;;;;5049988;28;20053;-46
2021/03/28 04:24:18;;;;;;;2.25;1.20;;;12.60;74.50;;;;;;5049309;28;20057;-44
2021/03/28 04:27:03;;;;;;;2.92;1.15;;;12.60;74.50;;;;;;5049941;28;20045;-43
2021/03/28 04:29:30;;;;;;;3.15;1.40;;;12.60;74.60;;;;;;5067189;28;20044;-41
2021/03/28 04:32:04;;;;;;;2.22;1.48;;;12.60;74.50;;;;;;5111879;28;20138;-42
2021/03/28 04:34:51;;;;;;;2.15;1.17;;;12.60;74.60;;;;;;5112916;28;20146;-43
2021/03/28 04:37:51;;;;;;;1.52;1.35;;;12.60;74.50;;;;;;5109701;28;20130;-45
2021/03/28 04:40:54;;;;;;;3.05;1.42;;;12.60;74.50;;;;;;5114206;28;20047;-47
2021/03/28 04:43:33;;;;;;;4.03;1.33;;;12.60;74.60;;;;;;5115357;28;20052;-43
2021/03/28 04:46:04;;;;;;;1.40;1.30;;;12.60;74.60;;;;;;5115178;28;20040;-42
2021/03/28 04:48:36;;;;;;;1.55;1.15;;;12.60;74.60;;;;;;5113869;28;20097;-42
2021/03/28 04:51:27;;;;;;;1.92;1.10;;;12.60;74.60;;;;;;5116317;28;20059;-41
2021/03/28 04:54:26;;;;;;;1.95;1.02;;;12.60;74.50;;;;;;5115670;28;20035;-43
2021/03/28 04:57:08;;;;;;;2.75;1.30;;;12.60;74.50;;;;;;5116407;28;20131;-47
2021/03/28 04:59:52;;;;;;;1.70;1.00;;;12.60;74.50;;;;;;5114513;28;20063;-39
2021/03/28 05:02:26;;;;;;;1.40;1.30;;;12.60;74.50;;;;;;5114369;28;20040;-43
2021/03/28 05:05:25;;;;;;;2.40;1.20;;;12.60;74.50;;;;;;5113379;28;20048;-41
2021/03/28 05:08:29;;;;;;;1.88;1.10;;;12.60;74.50;;;;;;5113470;28;20507;-41
2021/03/28 05:11:29;;;;;;;1.90;1.08;;;12.60;74.50;;;;;;5113373;28;20043;-41
2021/03/28 05:14:21;;;;;;;2.35;1.48;;;12.60;74.60;;;;;;5114632;28;20483;-42
2021/03/28 05:17:02;;;;;;;1.77;1.13;;;12.60;74.50;;;;;;5114323;28;20553;-44
2021/03/28 05:19:34;;;;;;;2.50;1.17;;;12.60;74.60;;;;;;5115807;28;20044;-48
2021/03/28 05:22:02;;;;;;;2.25;1.63;;;12.60;74.60;;;;;;5115906;28;20036;-46
2021/03/28 05:24:47;;;;;;;2.28;1.30;;;12.60;74.50;;;;;;5115648;28;20104;-47
2021/03/28 05:27:37;;;;;;;1.33;0.82;;;12.60;74.50;;;;;;5113604;28;20040;-42
2021/03/28 05:30:32;;;;;;;1.30;1.20;;;12.60;74.60;;;;;;5115389;28;20196;-45
2021/03/28 05:33:07;;;;;;;2.10;0.98;;;12.60;74.50;;;;;;5113804;28;20044;-50
2021/03/28 05:35:41;;;;;;;2.58;1.08;;;12.60;74.50;;;;;;5113663;28;20180;-50
2021/03/28 05:38:37;;;;;;;1.50;1.02;;;12.60;74.50;;;;;;5115463;28;20055;-44
2021/03/28 05:41:27;;;;;;;1.67;1.00;;;12.60;74.60;;;;;;5114546;28;20104;-43
2021/03/28 05:44:06;;;;;;;2.53;1.30;;;12.60;74.50;;;;;;5115295;28;20099;-44
2021/03/28 05:47:05;;;;;;;1.67;0.88;;;12.60;74.60;;;;;;5116023;28;20078;-43
2021/03/28 05:49:46;;;;;;;2.90;1.10;;;12.60;74.50;;;;;;5115423;28;20427;-44
2021/03/28 05:52:24;;;;;;;1.60;1.15;;;12.60;74.50;;;;;;5102726;28;20047;-39
2021/03/28 05:55:17;;;;;;;1.30;1.20;;;12.60;74.50;;;;;;5115492;28;20097;-45
2021/03/28 05:58:21;;;;;;;2.45;1.00;;;12.60;74.60;;;;;;5115652;28;20111;-50
2021/03/28 06:01:24;;;;;;;1.50;1.08;;;12.60;74.50;;;;;;5115847;28;20046;-42
2021/03/28 06:04:14;;;;;;;1.55;1.00;;;12.60;74.50;;;;;;5115473;28;20097;-47
2021/03/28 06:07:13;;;;;;;3.50;1.80;;;12.60;74.60;;;;;;5115388;28;20100;-45
2021/03/28 06:09:54;;;;;;;1.85;1.08;;;12.60;74.50;;;;;;5115380;28;20047;-45
2021/03/28 06:12:32;;;;;;;1.50;0.90;;;12.60;74.50;;;;;;5113431;28;20093;-48
2021/03/28 06:15:38;;;;;;;1.75;1.13;;;12.60;74.50;;;;;;5114601;28;20064;-43
2021/03/28 06:18:20;;;;;;;1.50;1.02;;;12.60;74.50;;;;;;5113626;28;20494;-42
2021/03/28 06:21:05;;;;;;;1.73;1.00;;;12.60;74.50;;;;;;5109343;28;20047;-44
2021/03/28 06:23:42;;;;;;;2.55;1.17;;;12.60;74.50;;;;;;5114168;28;20040;-49
2021/03/28 06:26:37;;;;;;;2.05;1.02;;;12.60;74.50;;;;;;5113127;28;20491;-46
2021/03/28 06:29:27;;;;;;;1.55;1.00;;;12.60;74.50;;;;;;5112586;28;20046;-44
2021/03/28 06:32:30;;;;;;;2.10;1.00;;;12.60;74.50;;;;;;5112683;28;20052;-43
2021/03/28 06:35:14;;;;;;;1.83;1.02;;;12.60;74.50;;;;;;5114567;28;20040;-48
2021/03/28 06:38:13;;;;;;;3.30;1.35;;;12.60;74.50;;;;;;5111985;28;20048;-45
2021/03/28 06:40:58;;;;;;;2.47;1.27;;;12.60;74.50;;;;;;5112191;28;20047;-48
2021/03/28 06:44:20;;;;;;;1.25;1.00;;;12.60;74.60;;;;;;5112428;28;20048;-49
2021/03/28 06:47:16;;;;;;;1.67;0.95;;;12.60;74.60;;;;;;5051543;28;20048;-42
2021/03/28 06:50:08;;;;;;;2.13;1.10;;;12.60;74.50;;;;;;5049353;28;20133;-48
2021/03/28 06:53:09;;;;;;;1.88;1.13;;;12.60;74.50;;;;;;4988882;28;20054;-43
2021/03/28 06:55:46;;;;;;;1.00;0.90;;;12.60;74.50;;;;;;4934011;29;20103;-41
2021/03/28 06:58:50;;;;;;;1.90;1.08;;;12.60;74.50;;;;;;4933801;29;20067;-42
2021/03/28 07:01:49;;;;;;;2.30;1.23;;;12.50;74.50;;;;;;4933050;29;20047;-44
2021/03/28 07:04:57;;;;;;;1.88;1.42;;;12.60;74.60;;;;;;4933501;29;20056;-41
2021/03/28 07:07:39;;;;;;;1.05;0.82;;;12.60;74.50;;;;;;4915361;29;20048;-47
2021/03/28 07:10:21;;;;;;;1.90;1.02;;;12.60;74.60;;;;;;4905293;29;20072;-44
2021/03/28 07:13:26;;;;;;;1.85;1.20;;;12.60;74.50;;;;;;4896112;29;20056;-51
2021/03/28 07:16:20;;;;;;;2.95;1.10;;;12.60;74.60;;;;;;4896374;29;20615;-46
2021/03/28 07:18:48;;;;;;;1.55;1.00;;;12.60;74.50;;;;;;4896536;29;20060;-45
2021/03/28 07:21:31;;;;;;;2.17;1.20;;;12.60;74.50;;;;;;4896588;29;20056;-48
2021/03/28 07:24:30;;;;;;;2.50;1.13;;;12.60;74.60;;;;;;4928433;29;20047;-44
2021/03/28 07:27:37;;;;;;;1.42;1.00;;;12.60;74.50;;;;;;4934347;29;20508;-46
2021/03/28 07:30:09;;;;;;;1.15;0.80;;;12.60;74.50;;;;;;4966393;28;20050;-48
2021/03/28 07:32:44;;;;;;;1.30;0.88;;;12.60;74.50;;;;;;5071335;28;20052;-41
2021/03/28 07:35:43;;;;;;;1.88;0.90;;;12.60;74.50;;;;;;5071199;28;20511;-44
2021/03/28 07:38:25;;;;;;;2.33;1.17;;;12.60;74.60;;;;;;5081576;28;20047;-45
2021/03/28 07:41:27;;;;;;;1.58;1.10;;;12.60;74.50;;;;;;5070406;28;20419;-45
2021/03/28 07:44:29;;;;;;;0.82;0.70;;;12.60;74.50;;;;;;5083682;28;20108;-45
2021/03/28 07:47:19;;;;;;;1.52;0.80;;;12.60;75.20;;;;;;5113202;28;20050;-45
2021/03/28 07:50:00;;;;;;;2.22;0.90;;;12.60;74.50;;;;;;5102766;28;20480;-48
2021/03/28 07:52:49;;;;;;;1.02;0.90;;;12.60;74.60;;;;;;5097056;28;20433;-47
2021/03/28 07:55:30;;;;;;;1.42;0.88;;;12.60;74.60;;;;;;5110965;28;20055;-43
2021/03/28 07:58:08;;;;;;;1.42;1.10;;;12.60;74.50;;;;;;5111384;28;20071;-46
2021/03/28 08:01:00;;;;;;;1.27;0.73;;;12.60;74.50;;;;;;5111101;28;20047;-42
2021/03/28 08:03:34;;;;;;;1.35;1.15;;;12.60;74.60;;;;;;5111823;28;20491;-43
2021/03/28 08:06:11;;;;;;;1.63;0.77;;;12.60;74.50;;;;;;5112924;28;20047;-46
2021/03/28 08:08:58;;;;;;;1.17;0.85;;;12.60;74.60;;;;;;5111871;28;20039;-45
2021/03/28 08:11:55;;;;;;;1.23;1.08;;;12.60;74.50;;;;;;5110895;28;20070;-49
2021/03/28 08:14:45;;;;;;;1.13;0.88;;;12.60;74.60;;;;;;5108104;28;20044;-41
2021/03/28 08:17:15;;;;;;;1.25;0.85;;;12.60;74.60;;;;;;5107311;28;20051;-44
2021/03/28 08:20:06;;;;;;;1.40;0.80;;;12.60;74.60;;;;;;5111865;28;20043;-42
2021/03/28 08:22:49;;;;;;;1.92;1.10;;;12.60;74.50;;;;;;5110127;28;20043;-44
2021/03/28 08:25:29;;;;;;;1.25;1.13;;;12.60;74.50;;;;;;5110025;28;20108;-41
2021/03/28 08:28:08;;;;;;;1.02;0.80;;;12.60;74.50;;;;;;5110588;28;20075;-39
2021/03/28 08:30:57;;;;;;;2.03;1.25;;;12.60;74.50;;;;;;5110134;28;20044;-52
2021/03/28 08:33:47;;;;;;;1.30;0.95;;;12.60;74.50;;;;;;5110108;28;20092;-47
2021/03/28 08:36:27;;;;;;;1.08;0.80;;;12.60;74.50;;;;;;5112040;28;20044;-46
2021/03/28 08:39:31;;;;;;;2.13;1.13;;;12.60;74.50;;;;;;5111235;28;20043;-46
2021/03/28 08:42:06;;;;;;;1.05;0.70;;;12.60;75.10;;;;;;5055150;28;20056;-41
2021/03/28 08:44:31;;;;;;;1.50;1.00;;;12.60;74.50;;;;;;5055062;28;20130;-40
2021/03/28 08:47:40;;;;;;;1.92;0.93;;;12.60;74.50;;;;;;5057297;28;20065;-48
2021/03/28 08:50:20;;;;;;;2.10;1.15;;;12.70;74.60;;;;;;5057419;28;20049;-40
2021/03/28 08:53:08;;;;;;;1.55;0.75;;;12.60;74.50;;;;;;5060299;28;20049;-43
2021/03/28 08:56:11;;;;;;;1.23;0.80;;;12.60;74.50;;;;;;5059109;28;20124;-42
2021/03/28 08:59:08;;;;;;;1.20;0.80;;;12.70;74.60;;;;;;5055891;28;20043;-47
2021/03/28 09:01:57;;;;;;;1.10;0.82;;;12.70;74.50;;;;;;5046678;28;20041;-47
2021/03/28 09:04:46;;;;;;;1.05;0.90;;;12.70;74.50;;;;;;5058557;28;20532;-43
2021/03/28 09:07:26;;;;;;;1.27;0.98;;;12.70;74.50;;;;;;5058002;28;20441;-43
2021/03/28 09:09:53;;;;;;;1.77;0.90;;;12.70;74.50;;;;;;5057390;28;20048;-44
2021/03/28 09:12:32;;;;;;;1.10;0.80;;;12.70;74.50;;;;;;5076261;28;20482;-49
2021/03/28 09:15:25;;;;;;;0.85;0.60;;;12.70;74.50;;;;;;5109200;28;20054;-45
2021/03/28 09:18:23;;;;;;;1.90;1.02;;;12.70;74.60;;;;;;5111055;28;20479;-43
2021/03/28 09:21:11;;;;;;;1.45;0.90;;;12.70;75.10;;;;;;5048365;28;20124;-45
2021/03/28 09:24:08;;;;;;;1.02;0.90;;;12.70;74.50;;;;;;5048989;28;20608;-45
2021/03/28 09:27:10;;;;;;;1.17;0.68;;;12.70;74.40;;;;;;5052832;28;20095;-49
2021/03/28 09:29:58;;;;;;;1.67;0.90;;;12.70;74.40;;;;;;5052550;28;20075;-45
2021/03/28 09:32:50;;;;;;;1.77;0.85;;;12.70;74.40;;;;;;5049446;28;20064;-46
2021/03/28 09:35:33;;;;;;;2.65;0.90;;;12.70;74.40;;;;;;5049868;28;20044;-44
2021/03/28 09:38:36;;;;;;;1.20;0.90;;;12.70;74.50;;;;;;5052214;28;20190;-43
2021/03/28 09:41:14;;;;;;;1.15;0.75;;;12.70;74.40;;;;;;5050808;28;20157;-40
2021/03/28 09:44:00;;;;;;;2.80;0.80;;;12.70;74.40;;;;;;5050171;28;20049;-46
2021/03/28 09:46:41;;;;;;;1.88;0.70;;;12.70;74.40;;;;;;5051498;28;20442;-49
2021/03/28 09:49:09;;;;;;;0.73;0.70;;;12.70;74.40;;;;;;5051581;28;20073;-44
2021/03/28 09:51:53;;;;;;;2.58;0.90;;;12.70;74.40;;;;;;5052475;28;20049;-47
2021/03/28 09:54:34;;;;;;;0.65;0.60;;;12.70;74.30;;;;;;5050941;28;20054;-40
2021/03/28 09:57:28;;;;;;;0.70;0.63;;;12.80;74.40;;;;;;5076206;28;20043;-47
2021/03/28 10:00:26;;;;;;;1.27;0.80;;;12.80;74.40;;;;;;5110255;28;20043;-41
2021/03/28 10:03:18;;;;;;;1.40;0.70;;;12.80;74.40;;;;;;5104114;28;20055;-45
2021/03/28 10:05:45;;;;;;;1.50;0.80;;;12.80;74.40;;;;;;5112028;28;20066;-48
2021/03/28 10:08:20;;;;;;;0.52;0.50;;;12.80;74.40;;;;;;5114307;28;20126;-49
2021/03/28 10:11:05;;;;;;;0.85;0.60;;;12.80;74.30;;;;;;5114996;28;20044;-47
2021/03/28 10:13:50;;;;;;;2.25;1.13;;;12.80;74.30;;;;;;5114256;28;20059;-49
2021/03/28 10:16:43;;;;;;;1.48;0.70;;;12.80;74.30;;;;;;5110568;28;20047;-47
2021/03/28 10:19:19;;;;;;;1.35;0.77;;;12.80;74.30;;;;;;5113454;28;20050;-44
2021/03/28 10:22:04;;;;;;;1.45;0.77;;;12.80;74.30;;;;;;5111385;28;20507;-50
2021/03/28 10:24:54;;;;;;;1.20;0.77;;;12.80;74.30;;;;;;5114516;28;20043;-46
2021/03/28 10:27:51;;;;;;;0.82;0.50;;;12.80;74.20;;;;;;5114038;28;20302;-42
2021/03/28 10:30:35;;;;;;;1.25;0.85;;;12.80;74.30;;;;;;5111914;28;20035;-42
2021/03/28 10:33:21;;;;;;;0.90;0.70;;;12.80;74.20;;;;;;5111683;28;20044;-41
2021/03/28 10:36:00;;;;;;;;;;;12.80;74.20;;;;;;5114914;28;20039;-41
2021/03/28 10:38:59;;;;;;;1.67;1.10;;;12.80;74.20;;;;;;5112400;28;19963;-43
2021/03/28 10:41:43;;;;;;;0.85;0.80;;;12.90;74.30;;;;;;5114082;28;20043;-40
2021/03/28 10:45:14;;;;;;;0.80;0.75;;;12.80;74.20;;;;;;5114317;28;20047;-38
2021/03/28 10:48:07;;;;;;;0.75;0.55;;;12.80;74.20;;;;;;5041286;28;20595;-41
2021/03/28 10:50:54;;;;;;;0.82;0.82;;;12.90;74.20;;;;;;5042590;28;20055;-45
2021/03/28 10:53:54;;;;;;;9.15;2.25;;;12.90;74.20;;;;;;5028100;28;20052;-40
2021/03/28 10:56:25;;;;;;;7.40;2.22;;;12.80;73.60;;;;;;5031941;28;20054;-40
2021/03/28 10:59:28;;;;;;;6.55;1.83;;;12.70;73.80;;;;;;5031708;28;20144;-38
2021/03/28 11:02:18;;;;;;;3.80;1.73;;;12.70;73.70;;;;;;5032088;28;20074;-39
2021/03/28 11:05:00;;;;;;;4.22;1.70;;;12.80;73.70;;;;;;5031419;28;20049;-41
2021/03/28 11:08:03;;;;;;;4.60;1.70;;;12.80;73.80;;;;;;5033938;28;20045;-41
2021/03/28 11:11:05;;;;;;;3.03;1.58;;;12.80;73.70;;;;;;5033567;28;20406;-40
2021/03/28 11:13:49;;;;;;;5.55;1.75;;;12.80;73.70;;;;;;5027122;28;20056;-41
2021/03/28 11:16:49;;;;;;;4.10;1.55;;;12.80;73.80;;;;;;5031861;28;20150;-42
2021/03/28 11:20:02;;;;;;;1.55;1.27;;;12.80;73.80;;;;;;5030394;28;20049;-45
2021/03/28 11:22:46;;;;;;;2.80;1.30;;;12.80;73.80;;;;;;4987273;28;20121;-40
2021/03/28 11:25:26;;;;;;;2.60;1.40;;;12.80;73.80;;;;;;5009663;28;20054;-41
2021/03/28 11:27:54;;;;;;;8.30;2.60;;;12.80;73.80;;;;;;4993319;28;20058;-43
2021/03/28 11:30:42;;;;;;;4.75;2.10;;;12.80;73.70;;;;;;5030747;28;20049;-42
2021/03/28 11:33:22;;;;;;;6.30;1.88;;;12.80;73.90;;;;;;5030034;28;20149;-37
2021/03/28 11:35:54;;;;;;;3.70;1.70;;;12.80;74.00;;;;;;5013511;28;20058;-38
2021/03/28 11:38:20;;;;;;;2.35;1.70;;;12.80;74.10;;;;;;5021572;28;20132;-42
2021/03/28 11:41:14;;;;;;;2.88;1.70;;;12.80;74.30;;;;;;5022547;28;20148;-40
2021/03/28 11:43:47;;;;;;;7.05;2.10;;;12.80;74.50;;;;;;5022026;28;20383;-40
2021/03/28 11:46:32;;;;;;;3.15;1.50;;;12.80;74.70;;;;;;5019632;28;20053;-44
2021/03/28 11:48:58;;;;;;;3.70;1.80;;;12.80;74.70;;;;;;5020566;28;20049;-42
2021/03/28 11:51:36;;;;;;;4.07;1.70;;;12.80;74.80;;;;;;5020571;28;20125;-44
2021/03/28 11:54:15;;;;;;;3.60;1.60;;;12.80;75.00;;;;;;5021335;28;20053;-40
2021/03/28 11:56:44;;;;;;;4.43;1.63;;;12.80;75.10;;;;;;5018862;28;20387;-38
2021/03/28 11:59:37;;;;;;;4.03;1.67;;;12.80;75.10;;;;;;5076496;28;20079;-39
2021/03/28 12:02:12;;;;;;;2.72;1.38;;;12.80;75.20;;;;;;5105723;28;20040;-39
2021/03/28 12:04:47;;;;;;;3.22;1.80;;;12.80;75.30;;;;;;5106525;28;20047;-38
2021/03/28 12:07:32;;;;;;;3.60;1.52;;;12.80;75.40;;;;;;5108008;28;20048;-38
2021/03/28 12:10:04;;;;;;;4.78;1.38;;;12.90;75.60;;;;;;5106899;28;20054;-38
2021/03/28 12:13:00;;;;;;;4.20;1.88;;;12.90;75.60;;;;;;5107033;28;20468;-36
2021/03/28 12:15:50;;;;;;;2.25;1.58;;;12.90;75.70;;;;;;5105645;28;20052;-38
2021/03/28 12:18:25;;;;;;;4.40;1.27;;;12.90;75.80;;;;;;5105966;28;20107;-39
2021/03/28 12:21:02;;;;;;;3.83;1.50;;;12.90;75.90;;;;;;5107767;28;20092;-39
2021/03/28 12:23:55;;;;;;;2.67;1.70;;;12.90;75.90;;;;;;5105418;28;20108;-38
2021/03/28 12:26:31;;;;;;;2.72;1.20;;;12.90;76.00;;;;;;5104530;28;20055;-40
2021/03/28 12:29:09;;;;;;;2.03;1.00;;;12.90;76.00;;;;;;5108581;28;20050;-38
2021/03/28 12:31:40;;;;;;;1.33;0.90;;;12.90;76.10;;;;;;5108053;28;20047;-42
2021/03/28 12:34:24;;;;;;;1.80;1.10;;;12.90;76.10;;;;;;5107353;28;20058;-39
2021/03/28 12:37:02;;;;;;;2.25;1.33;;;12.90;76.10;;;;;;5107521;28;20063;-38
2021/03/28 12:39:40;;;;;;;2.15;1.15;;;12.90;76.20;;;;;;5107236;28;20840;-42
2021/03/28 12:42:29;;;;;;;1.88;1.30;;;12.90;76.20;;;;;;5107415;28;20163;-38
2021/03/28 12:45:06;;;;;;;2.47;1.15;;;12.90;76.20;;;;;;5108299;28;20047;-38
2021/03/28 12:47:37;;;;;;;2.58;1.45;;;12.90;76.20;;;;;;5106523;28;20048;-38
2021/03/28 12:50:15;;;;;;;3.08;1.58;;;12.90;76.30;;;;;;5102870;28;20055;-38
2021/03/28 12:52:44;;;;;;;1.70;1.20;;;12.90;76.30;;;;;;5091836;28;20062;-38
2021/03/28 12:55:11;;;;;;;1.88;1.10;;;12.90;76.30;;;;;;5103761;28;20115;-38
2021/03/28 12:57:39;;;;;;;1.85;1.13;;;12.90;76.40;;;;;;5106317;28;20071;-40
2021/03/28 13:00:33;;;;;;;2.92;1.50;;;12.80;76.30;;;;;;5107630;28;20054;-41
2021/03/28 13:02:59;;;;;;;2.25;1.40;;;12.90;76.40;;;;;;5107312;28;20051;-39
2021/03/28 13:05:36;;;;;;;1.95;0.93;;;12.90;76.40;;;;;;5110126;28;20047;-39
2021/03/28 13:08:07;;;;;;;1.27;1.05;;;12.90;76.40;;;;;;5110666;28;20093;-40
2021/03/28 13:10:40;;;;;;;1.52;0.98;;;12.90;76.40;;;;;;5109019;28;20651;-40
2021/03/28 13:13:16;;;;;;;1.38;1.10;;;12.90;76.40;;;;;;5110357;28;20047;-39
2021/03/28 13:15:54;;;;;;;2.20;1.08;;;12.90;76.30;;;;;;5110617;28;20511;-37
2021/03/28 13:18:31;;;;;;;2.67;1.35;;;12.90;76.30;;;;;;5107363;28;20047;-39
2021/03/28 13:21:08;;;;;;;3.08;1.05;;;12.90;76.30;;;;;;5107090;28;20770;-39
2021/03/28 13:23:36;;;;;;;2.95;1.15;;;12.90;76.30;;;;;;5107005;28;20455;-40
2021/03/28 13:26:07;;;;;;;2.72;1.05;;;12.90;76.20;;;;;;5109678;28;20050;-42
2021/03/28 13:28:34;;;;;;;1.75;0.88;;;12.90;76.20;;;;;;5108339;28;20426;-39
2021/03/28 13:31:22;;;;;;;2.95;1.00;;;12.90;76.20;;;;;;5110317;28;20101;-40
2021/03/28 13:33:54;;;;;;;2.15;0.93;;;12.90;76.20;;;;;;5110115;28;20047;-38
2021/03/28 13:36:34;;;;;;;1.65;0.90;;;13.00;76.20;;;;;;5109500;28;20050;-42
2021/03/28 13:39:10;;;;;;;2.58;1.10;;;12.90;76.10;;;;;;5108493;28;20044;-40
2021/03/28 13:41:39;;;;;;;1.88;1.08;;;12.90;76.10;;;;;;5107936;28;20135;-41
2021/03/28 13:44:15;;;;;;;1.65;1.08;;;12.90;76.10;;;;;;5110491;28;20074;-40
2021/03/28 13:46:57;;;;;;;1.65;0.90;;;12.90;76.00;;;;;;5109412;28;20080;-41
2021/03/28 13:49:40;;;;;;;0.95;0.70;;;12.90;76.00;;;;;;5108728;28;20048;-39
2021/03/28 13:52:16;;;;;;;1.40;0.68;;;13.00;76.00;;;;;;5109521;28;20135;-40
2021/03/28 13:55:03;;;;;;;2.75;1.02;;;12.90;76.00;;;;;;5109270;28;20104;-41
2021/03/28 13:57:32;;;;;;;1.48;0.90;;;12.90;75.90;;;;;;5107184;28;20075;-40
2021/03/28 14:00:20;;;;;;;1.10;0.88;;;12.90;75.90;;;;;;5109897;28;20070;-39
2021/03/28 14:02:52;;;;;;;2.20;1.05;;;13.00;76.00;;;;;;5109101;28;20130;-38
2021/03/28 14:05:20;;;;;;;0.98;0.50;;;12.90;75.90;;;;;;5109714;28;20047;-40
2021/03/28 14:07:56;;;;;;;2.20;1.10;;;12.90;75.90;;;;;;5109959;28;20514;-39
2021/03/28 14:10:34;;;;;;;2.25;1.00;;;12.90;75.80;;;;;;5103785;28;21465;-40
2021/03/28 14:13:12;;;;;;;1.58;0.80;;;12.90;75.90;;;;;;5102290;28;20051;-41
2021/03/28 14:15:54;;;;;;;1.48;0.80;;;12.90;75.80;;;;;;5111845;28;20048;-40
2021/03/28 14:18:29;;;;;;;2.05;1.02;;;13.00;75.80;;;;;;5112600;28;20134;-40
2021/03/28 14:21:07;;;;;;;1.50;0.90;;;12.90;75.80;;;;;;5111206;28;20104;-40